Time,TemperatureF,DewpointF,PressureIn,WindDirection,WindDirectionDegrees,WindSpeedMPH,WindSpeedGustMPH,Humidity,HourlyPrecipIn,Conditions,Clouds,dailyrainin,SoftwareType,DateUTC
2013-01-19 00:10:00,70.9,54.0,30.09,ESE,112,6.5,6.5,46,0.00,,,-99.99,Homeseer,2013-01-19 05:10:00,
2013-01-19 00:20:00,70.9,54.4,30.09,ESE,112,4.9,7.4,47,0.00,,,-99.99,Homeseer,2013-01-19 05:20:00,
2013-01-19 00:30:00,70.9,54.0,30.09,ESE,112,4.9,4.9,46,0.00,,,-99.99,Homeseer,2013-01-19 05:30:00,
2013-01-19 00:40:00,70.9,54.0,30.09,SE,135,3.4,3.4,46,0.00,,,-99.99,Homeseer,2013-01-19 05:40:00,
2013-01-19 00:50:00,70.9,54.0,30.09,SE,135,5.4,5.4,46,0.00,,,-99.99,Homeseer,2013-01-19 05:50:00,
2013-01-19 01:01:00,70.9,54.0,30.09,East,90,4.5,5.6,46,0.00,,,-99.99,Homeseer,2013-01-19 06:01:00,
2013-01-19 01:10:00,70.9,54.0,30.09,ESE,112,3.8,4.0,46,0.00,,,-99.99,Homeseer,2013-01-19 06:10:00,
2013-01-19 01:20:00,70.9,54.4,30.09,ESE,112,4.9,6.0,47,0.00,,,-99.99,Homeseer,2013-01-19 06:20:00,
2013-01-19 01:30:00,71.1,55.0,30.06,ESE,112,4.7,6.3,48,0.00,,,-99.99,Homeseer,2013-01-19 06:30:00,
2013-01-19 01:40:00,71.1,55.0,30.06,SE,135,5.6,6.3,48,0.00,,,-99.99,Homeseer,2013-01-19 06:40:00,
2013-01-19 01:50:00,71.1,55.0,30.06,ESE,112,6.3,6.3,48,0.00,,,-99.99,Homeseer,2013-01-19 06:50:00,
2013-01-19 02:01:00,71.1,55.0,30.06,ESE,112,3.6,3.6,48,0.00,,,-99.99,Homeseer,2013-01-19 07:01:00,
2013-01-19 02:11:00,71.1,55.0,30.06,ESE,112,4.9,5.4,48,0.00,,,-99.99,Homeseer,2013-01-19 07:11:00,
2013-01-19 02:20:00,71.1,55.0,30.06,ESE,112,3.4,6.3,48,0.00,,,-99.99,Homeseer,2013-01-19 07:20:00,
2013-01-19 02:30:00,0.0,0.0,30.06,ESE,112,5.8,5.8,0,0.00,,,-99.99,Homeseer,2013-01-19 07:30:00,
2013-01-19 02:40:00,0.0,0.0,30.06,ESE,112,5.4,5.4,0,0.00,,,-99.99,Homeseer,2013-01-19 07:40:00,
2013-01-19 02:50:00,0.0,0.0,30.06,ESE,112,3.6,3.6,0,0.00,,,-99.99,Homeseer,2013-01-19 07:50:00,
2013-01-19 03:00:00,0.0,0.0,30.06,SE,135,4.5,5.6,0,0.00,,,-99.99,Homeseer,2013-01-19 08:00:00,
2013-01-19 03:10:00,0.0,0.0,30.06,ESE,112,3.8,4.7,0,0.00,,,-99.99,Homeseer,2013-01-19 08:10:00,
2013-01-19 03:20:00,0.0,0.0,30.06,East,90,2.9,3.8,0,0.00,,,-99.99,Homeseer,2013-01-19 08:20:00,
2013-01-19 03:30:00,0.0,0.0,30.03,SSE,157,3.8,3.8,0,0.00,,,-99.99,Homeseer,2013-01-19 08:30:00,
2013-01-19 03:40:00,0.0,0.0,30.03,SE,135,5.4,5.4,0,0.00,,,-99.99,Homeseer,2013-01-19 08:40:00,
2013-01-19 03:50:00,0.0,0.0,30.03,North,0,4.0,4.0,0,0.00,,,-99.99,Homeseer,2013-01-19 08:50:00,
2013-01-19 04:00:00,0.0,0.0,30.06,ESE,112,3.1,6.7,0,0.00,,,-99.99,Homeseer,2013-01-19 09:00:00,
2013-01-19 04:10:00,0.0,0.0,30.06,SE,135,5.8,5.8,0,0.00,,,-99.99,Homeseer,2013-01-19 09:10:00,
2013-01-19 04:20:00,0.0,0.0,30.03,ESE,112,4.0,4.0,0,0.00,,,-99.99,Homeseer,2013-01-19 09:20:00,
2013-01-19 04:30:00,0.0,0.0,30.03,SSE,157,5.4,5.4,0,0.00,,,-99.99,Homeseer,2013-01-19 09:30:00,
2013-01-19 04:40:00,0.0,0.0,30.03,SE,135,3.8,3.8,0,0.00,,,-99.99,Homeseer,2013-01-19 09:40:00,
2013-01-19 04:50:00,0.0,0.0,30.03,ESE,112,5.8,5.8,0,0.00,,,-99.99,Homeseer,2013-01-19 09:50:00,
2013-01-19 05:00:00,0.0,0.0,30.03,ESE,112,2.9,2.9,0,0.00,,,-99.99,Homeseer,2013-01-19 10:00:00,
2013-01-19 05:10:00,0.0,0.0,30.03,SSE,157,3.6,3.6,0,0.00,,,-99.99,Homeseer,2013-01-19 10:10:00,
2013-01-19 05:20:00,0.0,0.0,30.03,ESE,112,5.4,5.4,0,0.00,,,-99.99,Homeseer,2013-01-19 10:20:00,
2013-01-19 05:30:00,0.0,0.0,30.03,ESE,112,4.3,6.5,0,0.00,,,-99.99,Homeseer,2013-01-19 10:30:00,
2013-01-19 05:40:00,0.0,0.0,30.03,ESE,112,4.0,4.9,0,0.00,,,-99.99,Homeseer,2013-01-19 10:40:00,
2013-01-19 05:50:00,0.0,0.0,30.03,East,90,2.7,3.8,0,0.00,,,-99.99,Homeseer,2013-01-19 10:50:00,
2013-01-19 06:00:00,0.0,0.0,30.06,ESE,112,2.7,2.9,0,0.00,,,-99.99,Homeseer,2013-01-19 11:00:00,
2013-01-19 06:10:00,0.0,0.0,30.06,East,90,2.7,3.8,0,0.00,,,-99.99,Homeseer,2013-01-19 11:10:00,
2013-01-19 07:50:00,67.6,64.2,30.09,WNW,297,0.0,0.0,86,0.00,,,-99.99,Homeseer,2013-01-19 12:50:00,
2013-01-19 08:00:00,67.5,64.4,30.09,North,0,0.9,2.0,87,0.00,,,-99.99,Homeseer,2013-01-19 13:00:00,
2013-01-19 08:10:00,67.5,64.4,30.09,WSW,247,0.0,0.0,87,0.00,,,-99.99,Homeseer,2013-01-19 13:10:00,
2013-01-19 08:20:00,67.5,64.4,30.09,WNW,297,0.9,1.1,87,0.07,,,-99.99,Homeseer,2013-01-19 13:20:00,
2013-01-19 08:31:00,67.5,64.4,30.09,ESE,112,1.1,0.0,87,0.07,,,-99.99,Homeseer,2013-01-19 13:31:00,
2013-01-19 08:40:00,67.5,64.4,30.09,WNW,297,1.6,1.6,87,0.19,,,-99.99,Homeseer,2013-01-19 13:40:00,
2013-01-19 08:50:00,67.5,64.4,30.12,North,0,3.4,4.0,87,0.19,,,-99.99,Homeseer,2013-01-19 13:50:00,
2013-01-19 09:00:00,0.0,0.0,30.12,WNW,297,2.7,2.7,0,0.19,,,-99.99,Homeseer,2013-01-19 14:00:00,
2013-01-19 09:10:00,0.0,0.0,30.12,North,0,2.5,3.8,0,0.11,,,-99.99,Homeseer,2013-01-19 14:10:00,
2013-01-19 09:20:00,65.8,64.4,30.12,WNW,297,1.1,1.3,94,0.11,,,-99.99,Homeseer,2013-01-19 14:20:00,
2013-01-19 09:31:00,66.0,64.4,30.12,NW,315,2.5,3.1,93,0.11,,,-99.99,Homeseer,2013-01-19 14:31:00,
2013-01-19 09:40:00,66.0,64.6,30.12,WNW,297,3.1,3.1,94,0.11,,,-99.99,Homeseer,2013-01-19 14:40:00,
2013-01-19 09:50:00,66.0,64.6,30.12,North,0,2.2,2.2,94,0.11,,,-99.99,Homeseer,2013-01-19 14:50:00,
2013-01-19 10:00:00,66.0,64.9,30.12,North,0,2.5,2.7,95,0.11,,,-99.99,Homeseer,2013-01-19 15:00:00,
2013-01-19 10:10:00,66.0,64.9,30.12,WNW,297,2.0,2.5,95,0.11,,,-99.99,Homeseer,2013-01-19 15:10:00,
2013-01-19 10:20:00,66.0,64.9,30.12,North,0,0.9,0.0,95,0.07,,,-99.99,Homeseer,2013-01-19 15:20:00,
2013-01-19 10:30:00,66.0,64.9,30.12,WNW,297,1.3,2.2,95,0.07,,,-99.99,Homeseer,2013-01-19 15:30:00,
2013-01-19 10:40:00,66.0,64.9,30.12,NW,315,2.0,2.9,95,0.07,,,-99.99,Homeseer,2013-01-19 15:40:00,
2013-01-19 10:50:00,66.0,64.9,30.12,North,0,0.0,0.0,95,0.07,,,-99.99,Homeseer,2013-01-19 15:50:00,
2013-01-19 11:00:00,0.0,0.0,30.12,North,0,2.5,2.5,0,0.07,,,-99.99,Homeseer,2013-01-19 16:00:00,
2013-01-19 11:10:00,66.9,66.4,30.12,North,0,3.6,3.6,98,0.07,,,-99.99,Homeseer,2013-01-19 16:10:00,
2013-01-19 11:20:00,66.9,66.4,30.12,North,0,3.6,3.6,98,0.07,,,-99.99,Homeseer,2013-01-19 16:20:00,
2013-01-19 11:31:00,67.3,66.8,30.12,North,0,3.1,3.6,98,0.07,,,-99.99,Homeseer,2013-01-19 16:31:00,
2013-01-19 11:40:00,67.5,67.0,30.12,North,0,2.5,2.7,98,0.07,,,-99.99,Homeseer,2013-01-19 16:40:00,
2013-01-19 11:50:00,67.6,67.1,30.12,North,0,3.4,4.3,98,0.07,,,-99.99,Homeseer,2013-01-19 16:50:00,
2013-01-19 12:00:00,67.6,67.1,30.09,North,0,4.0,4.0,98,0.07,,,-99.99,Homeseer,2013-01-19 17:00:00,
2013-01-19 12:10:00,67.8,67.3,30.09,North,0,2.5,2.5,98,0.07,,,-99.99,Homeseer,2013-01-19 17:10:00,
2013-01-19 12:20:00,67.8,67.3,30.09,North,0,2.0,2.9,98,0.07,,,-99.99,Homeseer,2013-01-19 17:20:00,
2013-01-19 12:30:00,67.8,67.3,30.09,North,0,3.4,3.6,98,0.07,,,-99.99,Homeseer,2013-01-19 17:30:00,
2013-01-19 12:40:00,68.5,68.0,30.09,North,0,2.9,3.8,98,0.07,,,-99.99,Homeseer,2013-01-19 17:40:00,
2013-01-19 12:50:00,68.5,68.0,30.09,North,0,2.2,2.2,98,0.07,,,-99.99,Homeseer,2013-01-19 17:50:00,
2013-01-19 13:00:00,68.2,67.5,30.06,East,90,0.0,0.0,97,0.07,,,-99.99,Homeseer,2013-01-19 18:00:00,
2013-01-19 13:20:00,68.5,67.8,30.06,NW,315,0.0,0.0,97,0.03,,,-99.99,Homeseer,2013-01-19 18:20:00,
2013-01-19 13:40:00,68.5,67.8,30.06,North,0,0.0,0.0,97,0.03,,,-99.99,Homeseer,2013-01-19 18:40:00,
2013-01-19 13:51:00,68.5,67.8,30.06,North,0,1.1,1.1,97,0.03,,,-99.99,Homeseer,2013-01-19 18:51:00,
2013-01-19 14:10:00,0.0,0.0,30.03,ESE,112,3.1,4.7,0,0.03,,,-99.99,Homeseer,2013-01-19 19:10:00,
2013-01-19 14:20:00,0.0,0.0,30.03,ESE,112,4.7,4.7,0,0.03,,,-99.99,Homeseer,2013-01-19 19:20:00,
2013-01-19 14:31:00,0.0,0.0,30.03,ESE,112,4.7,5.6,0,0.03,,,-99.99,Homeseer,2013-01-19 19:31:00,
2013-01-19 14:40:00,0.0,0.0,30.03,East,90,3.8,3.8,0,0.03,,,-99.99,Homeseer,2013-01-19 19:40:00,
2013-01-19 14:50:00,0.0,0.0,30.03,East,90,4.0,4.3,0,0.03,,,-99.99,Homeseer,2013-01-19 19:50:00,
2013-01-19 15:10:00,0.0,0.0,30.03,ESE,112,3.1,4.0,0,0.03,,,-99.99,Homeseer,2013-01-19 20:10:00,
2013-01-19 15:20:00,69.3,68.8,30.03,NNE,22,3.1,3.1,98,0.03,,,-99.99,Homeseer,2013-01-19 20:20:00,
2013-01-19 15:30:00,68.9,68.4,30.03,ENE,67,3.8,3.8,98,0.03,,,-99.99,Homeseer,2013-01-19 20:30:00,
2013-01-19 15:50:00,68.7,68.2,30.00,East,90,4.0,4.0,98,0.03,,,-99.99,Homeseer,2013-01-19 20:50:00,
2013-01-19 16:00:00,68.7,68.2,30.00,East,90,4.0,4.0,98,0.03,,,-99.99,Homeseer,2013-01-19 21:00:00,
2013-01-19 16:10:00,69.3,67.9,30.00,ESE,112,4.0,4.0,94,0.03,,,-99.99,Homeseer,2013-01-19 21:10:00,
2013-01-19 16:21:00,69.6,68.7,30.00,ESE,112,4.0,4.0,96,0.03,,,-99.99,Homeseer,2013-01-19 21:21:00,
2013-01-19 16:31:00,69.8,69.1,30.00,ESE,112,4.0,4.0,97,0.03,,,-99.99,Homeseer,2013-01-19 21:31:00,
2013-01-19 16:41:00,69.4,68.7,30.00,ESE,112,4.5,4.5,97,0.03,,,-99.99,Homeseer,2013-01-19 21:41:00,
2013-01-19 16:50:00,69.8,69.1,30.00,ESE,112,4.5,4.5,97,0.00,,,-99.99,Homeseer,2013-01-19 21:50:00,
2013-01-19 17:00:00,69.6,68.9,30.00,ESE,112,4.5,4.5,97,0.00,,,-99.99,Homeseer,2013-01-19 22:00:00,
2013-01-19 17:31:00,69.8,68.6,30.00,ESE,112,4.5,4.5,95,0.00,,,-99.99,Homeseer,2013-01-19 22:31:00,
2013-01-19 17:40:00,69.8,68.9,30.00,North,0,0.0,0.0,96,0.00,,,-99.99,Homeseer,2013-01-19 22:40:00,
2013-01-19 18:00:00,69.8,68.9,30.03,WNW,297,0.0,4.0,96,0.00,,,-99.99,Homeseer,2013-01-19 23:00:00,
2013-01-19 18:10:00,69.8,68.9,30.03,North,0,2.0,2.0,96,0.00,,,-99.99,Homeseer,2013-01-19 23:10:00,
2013-01-19 18:20:00,69.8,68.9,30.03,North,0,3.1,3.1,96,0.00,,,-99.99,Homeseer,2013-01-19 23:20:00,
2013-01-19 18:31:00,69.8,69.1,30.03,North,0,3.8,4.0,97,0.00,,,-99.99,Homeseer,2013-01-19 23:31:00,
2013-01-19 18:40:00,69.8,69.1,30.03,North,0,2.9,2.9,97,0.00,,,-99.99,Homeseer,2013-01-19 23:40:00,
2013-01-19 18:50:00,69.8,69.1,30.03,ENE,67,1.3,2.2,97,0.00,,,-99.99,Homeseer,2013-01-19 23:50:00,
2013-01-19 19:01:00,69.8,69.1,30.03,NNE,22,0.0,0.9,97,0.00,,,-99.99,Homeseer,2013-01-20 00:01:00,
2013-01-19 19:10:00,69.8,69.1,30.03,North,0,2.7,2.9,97,0.00,,,-99.99,Homeseer,2013-01-20 00:10:00,
2013-01-19 19:20:00,69.8,69.1,30.03,North,0,2.0,2.7,97,0.00,,,-99.99,Homeseer,2013-01-20 00:20:00,
2013-01-19 19:30:00,0.0,0.0,30.03,North,0,3.1,3.1,0,0.00,,,-99.99,Homeseer,2013-01-20 00:30:00,
2013-01-19 19:40:00,0.0,0.0,30.03,East,90,0.0,0.0,0,0.00,,,-99.99,Homeseer,2013-01-20 00:40:00,
2013-01-19 19:50:00,0.0,0.0,30.03,ESE,112,0.0,2.5,0,0.00,,,-99.99,Homeseer,2013-01-20 00:50:00,
2013-01-19 20:00:00,0.0,0.0,30.03,SE,135,2.0,3.1,0,0.00,,,-99.99,Homeseer,2013-01-20 01:00:00,
2013-01-19 20:10:00,70.2,69.5,30.03,ENE,67,2.5,2.9,97,0.00,,,-99.99,Homeseer,2013-01-20 01:10:00,
2013-01-19 20:20:00,70.3,69.4,30.03,East,90,1.3,2.7,96,0.00,,,-99.99,Homeseer,2013-01-20 01:20:00,
2013-01-19 20:31:00,70.3,69.4,30.03,East,90,0.9,2.5,96,0.00,,,-99.99,Homeseer,2013-01-20 01:31:00,
2013-01-19 20:41:00,70.3,69.4,30.03,NNE,22,0.0,0.0,96,0.00,,,-99.99,Homeseer,2013-01-20 01:41:00,
2013-01-19 20:50:00,70.3,69.4,30.03,NNE,22,1.3,0.0,96,0.00,,,-99.99,Homeseer,2013-01-20 01:50:00,
2013-01-19 21:01:00,70.3,69.4,30.03,WNW,297,0.9,0.0,96,0.00,,,-99.99,Homeseer,2013-01-20 02:01:00,
2013-01-19 21:11:00,70.3,69.4,30.03,North,0,2.2,2.7,96,0.00,,,-99.99,Homeseer,2013-01-20 02:11:00,
2013-01-19 21:20:00,0.0,0.0,30.03,North,0,2.5,2.7,0,0.00,,,-99.99,Homeseer,2013-01-20 02:20:00,
2013-01-19 21:31:00,0.0,0.0,30.03,North,0,2.9,3.1,0,0.00,,,-99.99,Homeseer,2013-01-20 02:31:00,
2013-01-19 21:41:00,0.0,0.0,30.03,North,0,1.6,1.6,0,0.00,,,-99.99,Homeseer,2013-01-20 02:41:00,
2013-01-19 21:51:00,0.0,0.0,30.03,North,0,0.0,0.0,0,0.00,,,-99.99,Homeseer,2013-01-20 02:51:00,
2013-01-19 22:01:00,0.0,0.0,30.03,NNE,22,1.1,1.3,0,0.00,,,-99.99,Homeseer,2013-01-20 03:01:00,
2013-01-19 22:11:00,0.0,0.0,30.03,North,0,2.0,2.0,0,0.00,,,-99.99,Homeseer,2013-01-20 03:11:00,
2013-01-19 22:21:00,0.0,0.0,30.03,North,0,1.1,2.0,0,0.00,,,-99.99,Homeseer,2013-01-20 03:21:00,
2013-01-19 22:31:00,0.0,0.0,30.03,North,0,2.9,2.9,0,0.00,,,-99.99,Homeseer,2013-01-20 03:31:00,
2013-01-19 22:41:00,0.0,0.0,30.03,North,0,2.0,2.9,0,0.00,,,-99.99,Homeseer,2013-01-20 03:41:00,
2013-01-19 22:51:00,0.0,0.0,30.03,North,0,3.4,3.4,0,0.00,,,-99.99,Homeseer,2013-01-20 03:51:00,
2013-01-19 23:01:00,0.0,0.0,30.03,North,0,2.5,3.1,0,0.00,,,-99.99,Homeseer,2013-01-20 04:01:00,
2013-01-19 23:11:00,0.0,0.0,30.03,North,0,1.3,2.5,0,0.00,,,-99.99,Homeseer,2013-01-20 04:11:00,
2013-01-19 23:21:00,0.0,0.0,30.03,North,0,1.6,1.6,0,0.00,,,-99.99,Homeseer,2013-01-20 04:21:00,
2013-01-19 23:31:00,0.0,0.0,30.00,North,0,0.9,2.2,0,0.00,,,-99.99,Homeseer,2013-01-20 04:31:00,
2013-01-19 23:41:00,0.0,0.0,30.00,NW,315,0.0,0.0,0,0.00,,,-99.99,Homeseer,2013-01-20 04:41:00,
2013-01-19 23:51:00,0.0,0.0,30.00,North,0,2.0,2.5,0,0.00,,,-99.99,Homeseer,2013-01-20 04:51:00,